createdAt,value
2018-10-19T00:00:34.573Z,4.40
2018-10-19T00:03:02.641Z,5.40
2018-10-19T00:05:30.638Z,4.83
2018-10-19T00:07:58.629Z,4.03
2018-10-19T00:10:26.612Z,4.23
2018-10-19T00:12:54.670Z,4.20
2018-10-19T00:15:22.586Z,5.63
2018-10-19T00:17:50.612Z,4.00
2018-10-19T00:20:18.636Z,4.77
2018-10-19T00:22:46.650Z,4.50
2018-10-19T00:25:14.628Z,4.50
2018-10-19T00:27:42.674Z,5.27
2018-10-19T00:30:11.312Z,4.20
2018-10-19T00:32:39.383Z,4.60
2018-10-19T00:35:08.205Z,4.20
2018-10-19T00:37:36.160Z,4.60
2018-10-19T00:40:04.252Z,5.60
2018-10-19T00:42:32.389Z,5.60
2018-10-19T00:45:00.423Z,4.83
2018-10-19T00:47:28.633Z,3.90
2018-10-19T00:49:56.625Z,4.37
2018-10-19T00:52:24.607Z,4.20
2018-10-19T00:54:52.660Z,5.00
2018-10-19T00:57:20.683Z,4.40
2018-10-19T00:59:48.708Z,4.43
2018-10-19T01:02:16.752Z,4.83
2018-10-19T01:04:44.769Z,4.17
2018-10-19T01:07:12.739Z,4.50
2018-10-19T01:09:40.754Z,5.00
2018-10-19T01:12:08.836Z,4.33
2018-10-19T01:14:36.918Z,4.60
2018-10-19T01:17:05.048Z,4.63
2018-10-19T01:19:33.009Z,4.07
2018-10-19T01:22:01.204Z,4.50
2018-10-19T01:24:29.185Z,5.17
2018-10-19T01:26:57.239Z,4.70
2018-10-19T01:29:25.245Z,4.20
2018-10-19T01:31:53.236Z,3.97
2018-10-19T01:34:21.268Z,3.43
2018-10-19T01:36:49.289Z,4.20
2018-10-19T01:39:17.279Z,4.10
2018-10-19T01:41:45.317Z,4.40
2018-10-19T01:44:13.412Z,4.53
2018-10-19T01:46:47.438Z,4.10
2018-10-19T01:49:15.645Z,3.87
2018-10-19T01:51:44.261Z,4.17
2018-10-19T01:54:12.301Z,4.10
2018-10-19T01:56:40.319Z,3.67
2018-10-19T01:59:08.441Z,3.90
2018-10-19T02:01:36.477Z,3.57
2018-10-19T02:04:04.469Z,4.30
2018-10-19T02:06:32.592Z,3.90
2018-10-19T02:09:00.627Z,4.07
2018-10-19T02:11:28.598Z,2.97
2018-10-19T02:13:56.601Z,3.27
2018-10-19T02:16:24.619Z,3.03
2018-10-19T02:18:52.649Z,2.67
2018-10-19T02:21:20.635Z,2.50
2018-10-19T02:23:48.633Z,1.83
2018-10-19T02:26:16.636Z,2.20
2018-10-19T02:28:44.632Z,1.90
2018-10-19T02:31:12.671Z,2.13
2018-10-19T02:33:40.652Z,1.40
2018-10-19T02:36:08.864Z,1.97
2018-10-19T02:38:36.869Z,2.03
2018-10-19T02:41:05.288Z,2.37
2018-10-19T02:43:33.280Z,2.13
2018-10-19T02:46:01.265Z,2.20
2018-10-19T02:48:29.301Z,2.40
2018-10-19T02:50:57.407Z,2.83
2018-10-19T02:53:25.345Z,2.30
2018-10-19T02:55:53.356Z,3.20
2018-10-19T02:58:21.369Z,3.00
2018-10-19T03:00:49.437Z,3.10
2018-10-19T03:03:17.490Z,2.60
2018-10-19T03:05:45.533Z,1.90
2018-10-19T03:08:13.536Z,2.30
2018-10-19T03:10:41.585Z,3.20
2018-10-19T03:13:09.656Z,2.60
2018-10-19T03:15:37.676Z,2.53
2018-10-19T03:18:05.950Z,3.10
2018-10-19T03:20:33.925Z,2.57
2018-10-19T03:23:02.108Z,3.03
2018-10-19T03:25:30.051Z,2.33
2018-10-19T03:27:58.055Z,2.40
2018-10-19T03:30:26.066Z,2.47
2018-10-19T03:32:54.093Z,2.30
2018-10-19T03:35:22.114Z,1.87
2018-10-19T03:37:51.150Z,1.83
2018-10-19T03:40:19.125Z,1.97
2018-10-19T03:42:47.121Z,2.70
2018-10-19T03:45:15.208Z,2.40
2018-10-19T03:47:43.206Z,2.20
2018-10-19T03:50:11.225Z,2.10
2018-10-19T03:52:39.234Z,2.23
2018-10-19T03:55:07.252Z,2.27
2018-10-19T03:57:35.250Z,3.03
2018-10-19T04:00:03.346Z,2.77
2018-10-19T04:02:31.336Z,3.20
2018-10-19T04:04:59.414Z,2.87
2018-10-19T04:07:27.416Z,3.27
2018-10-19T04:09:55.425Z,3.70
2018-10-19T04:12:23.465Z,3.50
2018-10-19T04:14:51.469Z,3.40
2018-10-19T04:17:19.468Z,4.20
2018-10-19T04:19:47.533Z,3.87
2018-10-19T04:22:15.638Z,4.13
2018-10-19T04:24:43.685Z,4.33
2018-10-19T04:27:11.946Z,3.97
2018-10-19T04:29:39.917Z,3.90
2018-10-19T04:32:07.912Z,4.30
2018-10-19T04:34:35.909Z,4.53
2018-10-19T04:37:05.530Z,3.73
2018-10-19T04:39:33.962Z,4.83
2018-10-19T04:42:02.667Z,3.80
2018-10-19T04:44:30.681Z,4.03
2018-10-19T04:46:58.723Z,4.60
2018-10-19T04:49:27.000Z,4.30
2018-10-19T04:51:55.005Z,3.70
2018-10-19T04:54:23.292Z,4.20
2018-10-19T04:56:51.296Z,3.57
2018-10-19T04:59:19.489Z,4.43
2018-10-19T05:01:47.840Z,3.95
2018-10-19T05:04:15.894Z,3.60
2018-10-19T05:06:44.198Z,3.30
2018-10-19T05:09:13.085Z,3.60
2018-10-19T05:11:41.215Z,3.47
2018-10-19T05:14:09.702Z,3.30
2018-10-19T05:16:38.223Z,3.50
2018-10-19T05:19:06.776Z,3.10
2018-10-19T05:21:35.565Z,3.80
2018-10-19T05:24:03.598Z,3.73
2018-10-19T05:26:31.619Z,3.80
2018-10-19T05:28:59.655Z,3.90
2018-10-19T05:31:27.649Z,3.80
2018-10-19T05:33:57.057Z,3.50
2018-10-19T05:36:25.297Z,4.27
2018-10-19T05:38:53.465Z,4.13
2018-10-19T05:41:21.835Z,3.47
2018-10-19T05:43:49.887Z,4.10
2018-10-19T05:46:18.090Z,4.80
2018-10-19T05:48:46.137Z,3.90
2018-10-19T05:51:14.184Z,3.43
2018-10-19T05:53:42.224Z,4.80
2018-10-19T05:56:10.227Z,3.90
2018-10-19T05:58:38.314Z,4.30
2018-10-19T06:01:06.666Z,4.30
2018-10-19T06:03:34.729Z,4.53
2018-10-19T06:06:02.775Z,4.87
2018-10-19T06:08:30.893Z,5.27
2018-10-19T06:10:58.987Z,4.70
2018-10-19T06:13:27.266Z,6.23
2018-10-19T06:15:55.268Z,5.23
2018-10-19T06:18:23.293Z,6.07
2018-10-19T06:20:51.294Z,5.80
2018-10-19T06:23:19.387Z,6.40
2018-10-19T06:25:47.419Z,6.23
2018-10-19T06:28:15.459Z,6.40
2018-10-19T06:30:43.437Z,6.60
2018-10-19T06:33:11.428Z,6.47
2018-10-19T06:35:39.450Z,6.27
2018-10-19T06:38:07.744Z,6.10
2018-10-19T06:40:35.839Z,4.87
2018-10-19T06:43:03.837Z,5.27
2018-10-19T06:45:31.860Z,5.20
2018-10-19T06:47:59.907Z,4.77
2018-10-19T06:50:27.892Z,4.87
2018-10-19T06:52:55.944Z,5.43
2018-10-19T06:55:23.940Z,4.30
2018-10-19T06:57:52.097Z,4.77
2018-10-19T07:00:20.069Z,4.70
2018-10-19T07:02:48.085Z,4.93
2018-10-19T07:05:16.135Z,4.67
2018-10-19T07:07:44.153Z,5.17
2018-10-19T07:10:12.305Z,4.77
2018-10-19T07:12:40.983Z,5.23
2018-10-19T07:15:09.792Z,5.47
2018-10-19T07:17:38.156Z,5.40
2018-10-19T07:20:07.203Z,4.87
2018-10-19T07:22:35.185Z,4.97
2018-10-19T07:25:03.264Z,4.77
2018-10-19T07:27:31.284Z,5.70
2018-10-19T07:29:59.461Z,4.50
2018-10-19T07:32:27.473Z,5.50
2018-10-19T07:34:55.593Z,4.50
2018-10-19T07:37:23.702Z,4.47
2018-10-19T07:39:51.862Z,4.67
2018-10-19T07:42:19.935Z,4.83
2018-10-19T07:44:47.998Z,4.10
2018-10-19T07:47:16.113Z,4.57
2018-10-19T07:49:44.050Z,5.10
2018-10-19T07:52:12.084Z,5.60
2018-10-19T07:54:40.246Z,4.73
2018-10-19T07:57:08.262Z,5.13
2018-10-19T07:59:36.296Z,5.07
2018-10-19T08:02:04.920Z,5.03
2018-10-19T08:04:32.894Z,4.93
2018-10-19T08:07:00.893Z,5.23
2018-10-19T08:09:28.913Z,5.43
2018-10-19T08:11:56.931Z,4.80
2018-10-19T08:14:24.978Z,4.43
2018-10-19T08:16:53.048Z,5.43
2018-10-19T08:19:21.078Z,4.73
2018-10-19T08:21:49.182Z,6.17
2018-10-19T08:24:17.213Z,5.20
2018-10-19T08:26:45.229Z,4.63
2018-10-19T08:29:13.342Z,5.37
2018-10-19T08:31:41.293Z,4.67
2018-10-19T08:34:09.298Z,4.10
2018-10-19T08:36:37.377Z,4.27
2018-10-19T08:39:07.409Z,4.50
2018-10-19T08:41:35.495Z,3.90
2018-10-19T08:44:03.553Z,3.80
2018-10-19T08:46:37.129Z,3.77
2018-10-19T08:49:06.673Z,3.70
2018-10-19T08:51:34.709Z,3.43
2018-10-19T08:54:02.781Z,3.40
2018-10-19T08:56:30.836Z,4.17
2018-10-19T08:58:58.948Z,3.27
2018-10-19T09:01:27.217Z,3.40
2018-10-19T09:03:55.376Z,3.37
2018-10-19T09:06:23.393Z,3.87
2018-10-19T09:08:52.573Z,4.10
2018-10-19T09:11:20.617Z,3.90
2018-10-19T09:13:48.681Z,4.00
2018-10-19T09:16:16.672Z,3.90
2018-10-19T09:18:44.737Z,3.30
2018-10-19T09:21:12.894Z,3.30
2018-10-19T09:23:40.836Z,3.27
2018-10-19T09:26:08.982Z,3.60
2018-10-19T09:28:37.032Z,3.30
2018-10-19T09:31:05.508Z,3.53
2018-10-19T09:33:33.554Z,3.33
2018-10-19T09:36:01.842Z,3.33
2018-10-19T09:38:29.852Z,3.80
2018-10-19T09:40:58.004Z,3.57
2018-10-19T09:43:25.972Z,3.17
2018-10-19T09:45:53.990Z,3.07
2018-10-19T09:48:22.019Z,3.17
2018-10-19T09:50:50.113Z,3.40
2018-10-19T09:53:18.144Z,2.83
2018-10-19T09:55:46.253Z,2.93
2018-10-19T09:58:14.271Z,2.67
2018-10-19T10:00:47.924Z,3.20
2018-10-19T10:03:16.181Z,2.33
2018-10-19T10:05:44.228Z,1.80
2018-10-19T10:08:12.309Z,2.33
2018-10-19T10:10:40.332Z,2.30
2018-10-19T10:13:08.574Z,2.63
2018-10-19T10:15:36.884Z,3.23
2018-10-19T10:18:05.134Z,2.57
2018-10-19T10:20:33.144Z,2.97
2018-10-19T10:23:01.129Z,3.43
2018-10-19T10:25:29.294Z,2.30
2018-10-19T10:27:57.379Z,2.90
2018-10-19T10:30:25.369Z,2.70
2018-10-19T10:32:53.420Z,2.30
2018-10-19T10:35:21.489Z,2.20
2018-10-19T10:37:49.540Z,1.93
2018-10-19T10:40:17.575Z,3.97
2018-10-19T10:42:45.564Z,2.13
2018-10-19T10:45:13.677Z,1.80
2018-10-19T10:47:41.686Z,1.90
2018-10-19T10:50:09.893Z,2.77
2018-10-19T10:52:37.926Z,2.53
2018-10-19T10:55:06.129Z,2.00
2018-10-19T10:57:34.273Z,3.90
2018-10-19T11:00:02.301Z,2.30
2018-10-19T11:02:30.281Z,2.03
2018-10-19T11:04:58.264Z,2.10
2018-10-19T11:07:26.361Z,2.47
2018-10-19T11:09:54.347Z,2.20
2018-10-19T11:12:22.390Z,3.40
2018-10-19T11:14:50.403Z,2.40
2018-10-19T11:17:18.817Z,2.10
2018-10-19T11:19:46.873Z,2.03
2018-10-19T11:22:15.026Z,1.73
2018-10-19T11:24:42.980Z,1.90
2018-10-19T11:27:11.025Z,2.27
2018-10-19T11:29:39.117Z,2.50
2018-10-19T11:32:07.335Z,1.80
2018-10-19T11:34:35.356Z,2.37
2018-10-19T11:37:03.697Z,2.40
2018-10-19T11:39:31.838Z,2.00
2018-10-19T11:41:59.932Z,1.43
2018-10-19T11:44:27.921Z,2.00
2018-10-19T11:46:59.821Z,2.73
2018-10-19T11:49:28.206Z,1.87
2018-10-19T11:51:56.353Z,1.90
2018-10-19T11:54:24.336Z,2.00
2018-10-19T11:56:52.356Z,2.03
2018-10-19T11:59:20.393Z,2.33
2018-10-19T12:01:48.412Z,2.30
2018-10-19T12:04:16.482Z,2.17
2018-10-19T12:06:44.450Z,2.17
2018-10-19T12:09:12.906Z,2.10
2018-10-19T12:11:41.001Z,2.67
2018-10-19T12:14:09.425Z,1.90
2018-10-19T12:16:37.464Z,2.23
2018-10-19T12:19:05.599Z,1.90
2018-10-19T12:21:33.671Z,2.23
2018-10-19T12:24:01.946Z,2.43
2018-10-19T12:26:30.018Z,2.00
2018-10-19T12:28:58.044Z,2.40
2018-10-19T12:31:26.093Z,1.73
2018-10-19T12:33:54.111Z,2.17
2018-10-19T12:36:22.161Z,2.03
2018-10-19T12:38:50.286Z,1.93
2018-10-19T12:41:18.361Z,2.10
2018-10-19T12:43:46.515Z,2.13
2018-10-19T12:46:27.164Z,1.80
2018-10-19T12:48:55.733Z,2.20
2018-10-19T12:51:23.797Z,1.87
2018-10-19T12:53:51.831Z,2.30
2018-10-19T12:56:20.774Z,2.60
2018-10-19T12:58:49.806Z,2.13
2018-10-19T13:01:17.917Z,2.03
2018-10-19T13:03:45.942Z,2.43
2018-10-19T13:06:13.953Z,2.13
2018-10-19T13:08:42.277Z,2.07
2018-10-19T13:11:10.455Z,2.43
2018-10-19T13:13:38.505Z,2.70
2018-10-19T13:16:06.529Z,1.73
2018-10-19T13:18:34.636Z,1.80
2018-10-19T13:21:03.495Z,2.10
2018-10-19T13:23:32.573Z,2.43
2018-10-19T13:26:00.797Z,2.07
2018-10-19T13:28:28.835Z,2.13
2018-10-19T13:30:56.908Z,2.70
2018-10-19T13:33:25.208Z,2.17
2018-10-19T13:35:53.354Z,2.00
2018-10-19T13:38:21.938Z,2.20
2018-10-19T13:40:50.392Z,2.33
2018-10-19T13:43:18.548Z,2.10
2018-10-19T13:45:46.768Z,2.77
2018-10-19T13:48:14.742Z,2.03
2018-10-19T13:50:43.043Z,2.27
2018-10-19T13:53:11.105Z,2.40
2018-10-19T13:55:39.194Z,2.90
2018-10-19T13:58:07.193Z,2.37
2018-10-19T14:00:35.300Z,2.63
2018-10-19T14:03:03.396Z,2.20
2018-10-19T14:05:31.539Z,2.17
2018-10-19T14:07:59.453Z,2.53
2018-10-19T14:10:27.556Z,2.53
2018-10-19T14:12:55.572Z,1.90
2018-10-19T14:15:23.601Z,2.53
2018-10-19T14:17:51.617Z,1.90
2018-10-19T14:20:20.881Z,2.30
2018-10-19T14:22:48.886Z,2.37
2018-10-19T14:25:16.913Z,2.90
2018-10-19T14:27:45.385Z,3.00
2018-10-19T14:30:14.720Z,2.57
2018-10-19T14:32:43.170Z,2.37
2018-10-19T14:35:12.107Z,2.50
2018-10-19T14:37:41.107Z,2.47
2018-10-19T14:40:11.365Z,2.30
2018-10-19T14:42:40.083Z,1.90
2018-10-19T14:45:09.163Z,2.93
2018-10-19T14:47:37.677Z,1.93
2018-10-19T14:50:06.674Z,2.40
2018-10-19T14:52:34.686Z,2.30
2018-10-19T14:55:02.775Z,2.47
2018-10-19T14:57:30.796Z,2.50
2018-10-19T14:59:58.799Z,3.47
2018-10-19T15:02:26.828Z,2.50
2018-10-19T15:04:54.894Z,2.90
2018-10-19T15:07:22.844Z,3.10
2018-10-19T15:09:51.092Z,2.97
2018-10-19T15:12:18.873Z,2.67
2018-10-19T15:14:46.993Z,2.90
2018-10-19T15:17:15.009Z,2.77
2018-10-19T15:19:43.145Z,3.30
2018-10-19T15:22:11.317Z,3.33
2018-10-19T15:24:39.396Z,3.37
2018-10-19T15:27:07.736Z,3.60
2018-10-19T15:29:35.822Z,3.63
2018-10-19T15:32:03.781Z,3.13
2018-10-19T15:34:31.820Z,3.90
2018-10-19T15:36:59.945Z,3.40
2018-10-19T15:39:27.961Z,3.43
2018-10-19T15:41:55.986Z,3.13
2018-10-19T15:44:24.072Z,4.27
2018-10-19T15:46:52.061Z,4.00
2018-10-19T15:49:20.089Z,3.37
2018-10-19T15:51:48.110Z,3.60
2018-10-19T15:54:16.164Z,3.80
2018-10-19T15:56:44.282Z,3.23
2018-10-19T15:59:12.318Z,2.60
2018-10-19T16:01:40.361Z,3.07
2018-10-19T16:04:08.416Z,2.97
2018-10-19T16:06:36.428Z,2.83
2018-10-19T16:09:07.548Z,3.13
2018-10-19T16:11:35.569Z,3.00
2018-10-19T16:14:03.615Z,3.10
2018-10-19T16:16:31.624Z,3.60
2018-10-19T16:18:59.639Z,2.53
2018-10-19T16:21:27.633Z,3.07
2018-10-19T16:23:55.647Z,3.90
2018-10-19T16:26:23.632Z,2.57
2018-10-19T16:28:51.679Z,3.43
2018-10-19T16:31:19.677Z,2.97
2018-10-19T16:33:47.688Z,2.80
2018-10-19T16:36:15.774Z,3.30
2018-10-19T16:38:43.786Z,2.93
2018-10-19T16:41:11.811Z,4.33
2018-10-19T16:43:39.809Z,3.73
2018-10-19T16:46:07.876Z,4.90
2018-10-19T16:48:35.854Z,4.00
2018-10-19T16:51:04.013Z,3.50
2018-10-19T16:53:32.053Z,3.63
2018-10-19T16:56:00.230Z,3.40
2018-10-19T16:58:28.399Z,3.20
2018-10-19T17:00:56.397Z,3.53
2018-10-19T17:03:24.558Z,3.80
2018-10-19T17:05:52.588Z,3.93
2018-10-19T17:08:20.603Z,4.00
2018-10-19T17:10:48.618Z,4.77
2018-10-19T17:13:17.516Z,4.27
2018-10-19T17:15:45.594Z,3.93
2018-10-19T17:18:13.602Z,5.03
2018-10-19T17:20:41.624Z,3.50
2018-10-19T17:23:09.731Z,3.87
2018-10-19T17:25:37.766Z,4.10
2018-10-19T17:28:06.113Z,3.20
2018-10-19T17:33:13.658Z,3.50
2018-10-19T17:35:41.695Z,3.73
2018-10-19T17:38:09.713Z,3.77
2018-10-19T17:40:37.748Z,3.50
2018-10-19T17:43:06.315Z,3.80
2018-10-19T17:45:34.243Z,3.27
2018-10-19T17:48:02.471Z,3.00
2018-10-19T17:50:30.456Z,3.50
2018-10-19T17:52:58.518Z,3.30
2018-10-19T17:55:26.608Z,3.30
2018-10-19T17:57:54.616Z,3.47
2018-10-19T18:00:22.715Z,3.47
2018-10-19T18:02:50.749Z,3.07
2018-10-19T18:05:18.773Z,2.60
2018-10-19T18:07:46.829Z,3.70
2018-10-19T18:10:14.877Z,2.63
2018-10-19T18:12:43.049Z,3.23
2018-10-19T18:15:11.125Z,3.43
2018-10-19T18:17:39.491Z,3.07
2018-10-19T18:20:07.499Z,3.07
2018-10-19T18:22:35.768Z,2.50
2018-10-19T18:25:03.781Z,3.20
2018-10-19T18:27:31.806Z,3.80
2018-10-19T18:29:59.848Z,3.67
2018-10-19T18:32:28.059Z,3.77
2018-10-19T18:34:56.336Z,3.90
2018-10-19T18:37:24.343Z,3.63
2018-10-19T18:39:52.358Z,3.20
2018-10-19T18:42:20.398Z,3.10
2018-10-19T18:44:48.476Z,4.10
2018-10-19T18:47:16.544Z,3.83
2018-10-19T18:49:44.692Z,6.77
2018-10-19T18:52:12.896Z,6.80
2018-10-19T18:54:40.981Z,7.77
2018-10-19T18:57:09.045Z,7.03
2018-10-19T18:59:37.101Z,7.50
2018-10-19T19:02:05.583Z,6.37
2018-10-19T19:04:33.563Z,6.07
2018-10-19T19:07:01.690Z,5.70
2018-10-19T19:09:29.709Z,5.87
2018-10-19T19:11:57.704Z,6.70
2018-10-19T19:14:25.805Z,6.43
2018-10-19T19:16:53.815Z,6.70
2018-10-19T19:19:21.872Z,6.77
2018-10-19T19:21:49.923Z,5.47
2018-10-19T19:24:23.410Z,5.70
2018-10-19T19:26:51.401Z,5.30
2018-10-19T19:29:19.395Z,5.47
2018-10-19T19:31:47.418Z,5.10
2018-10-19T19:34:19.968Z,4.90
2018-10-19T19:36:48.428Z,4.83
2018-10-19T19:39:16.441Z,5.00
2018-10-19T19:41:49.775Z,5.27
2018-10-19T19:44:17.764Z,4.40
2018-10-19T19:46:45.796Z,4.40
2018-10-19T19:49:19.367Z,5.70
2018-10-19T19:51:47.353Z,5.40
2018-10-19T19:54:15.401Z,4.97
2018-10-19T19:56:43.547Z,4.80
2018-10-19T19:59:11.579Z,5.20
2018-10-19T20:01:39.529Z,8.03
2018-10-19T20:04:07.730Z,6.23
2018-10-19T20:06:35.821Z,5.13
2018-10-19T20:09:05.036Z,7.47
2018-10-19T20:11:33.144Z,7.73
2018-10-19T20:14:01.153Z,6.60
2018-10-19T20:16:29.305Z,6.93
2018-10-19T20:18:57.357Z,6.73
2018-10-19T20:21:25.393Z,5.87
2018-10-19T20:23:53.497Z,5.90
2018-10-19T20:26:21.540Z,5.90
2018-10-19T20:28:49.590Z,4.63
2018-10-19T20:31:17.590Z,5.37
2018-10-19T20:33:45.877Z,4.83
2018-10-19T20:36:14.014Z,4.27
2018-10-19T20:38:42.214Z,5.07
2018-10-19T20:41:10.354Z,5.00
2018-10-19T20:43:38.390Z,5.10
2018-10-19T20:46:06.810Z,5.63
2018-10-19T20:48:35.023Z,5.40
2018-10-19T20:51:03.196Z,5.30
2018-10-19T20:53:31.691Z,5.00
2018-10-19T20:55:59.789Z,5.13
2018-10-19T20:58:27.788Z,5.60
2018-10-19T21:00:55.905Z,4.97
2018-10-19T21:03:23.984Z,5.47
2018-10-19T21:08:15.132Z,5.70
2018-10-19T21:10:43.068Z,7.70
2018-10-19T21:13:11.139Z,8.23
2018-10-19T21:15:39.131Z,8.10
2018-10-19T21:18:07.285Z,7.30
2018-10-19T21:20:35.350Z,9.00
2018-10-19T21:23:03.508Z,8.97
2018-10-19T21:25:31.547Z,8.40
2018-10-19T21:27:59.578Z,7.33
2018-10-19T21:30:27.751Z,6.53
2018-10-19T21:32:55.753Z,8.60
2018-10-19T21:35:24.048Z,7.00
2018-10-19T21:37:52.112Z,7.50
2018-10-19T21:40:20.508Z,6.83
2018-10-19T21:42:48.647Z,7.40
2018-10-19T21:45:16.694Z,7.80
2018-10-19T21:47:44.792Z,7.60
2018-10-19T21:50:13.968Z,8.23
2018-10-19T21:52:41.932Z,7.63
2018-10-19T21:55:11.277Z,7.50
2018-10-19T21:57:39.345Z,6.30
2018-10-19T22:00:08.362Z,6.80
2018-10-19T22:02:36.449Z,5.90
2018-10-19T22:05:04.599Z,5.77
2018-10-19T22:07:32.580Z,6.17
2018-10-19T22:10:00.546Z,6.10
2018-10-19T22:12:28.556Z,5.80
2018-10-19T22:14:56.587Z,6.33
2018-10-19T22:17:24.597Z,6.90
2018-10-19T22:19:52.829Z,8.80
2018-10-19T22:22:20.846Z,7.43
2018-10-19T22:24:48.969Z,8.33
2018-10-19T22:27:16.977Z,8.37
2018-10-19T22:29:44.984Z,7.80
2018-10-19T22:32:13.029Z,8.10
2018-10-19T22:34:41.250Z,8.83
2018-10-19T22:37:09.305Z,9.53
2018-10-19T22:39:37.333Z,8.13
2018-10-19T22:42:05.415Z,8.33
2018-10-19T22:44:34.306Z,8.40
2018-10-19T22:47:02.395Z,9.80
2018-10-19T22:49:30.373Z,8.23
2018-10-19T22:51:58.364Z,7.07
2018-10-19T22:54:26.368Z,8.43
2018-10-19T22:56:54.476Z,7.43
2018-10-19T22:59:22.678Z,7.77
2018-10-19T23:01:50.665Z,7.57
2018-10-19T23:04:18.698Z,8.67
2018-10-19T23:06:46.856Z,7.13
2018-10-19T23:09:14.869Z,5.90
2018-10-19T23:11:42.909Z,6.57
2018-10-19T23:14:10.916Z,7.60
2018-10-19T23:16:38.924Z,6.83
2018-10-19T23:19:06.999Z,7.73
2018-10-19T23:21:34.963Z,8.07
2018-10-19T23:24:03.218Z,8.20
2018-10-19T23:26:31.236Z,8.80
2018-10-19T23:28:59.296Z,8.03
2018-10-19T23:31:27.531Z,9.98
2018-10-19T23:33:55.382Z,9.80
2018-10-19T23:36:23.445Z,8.70
2018-10-19T23:38:51.457Z,9.13
2018-10-19T23:41:19.461Z,7.87
2018-10-19T23:43:47.527Z,7.40
2018-10-19T23:46:15.485Z,8.57
2018-10-19T23:48:43.799Z,8.87
2018-10-19T23:51:11.813Z,9.10
2018-10-19T23:53:39.817Z,9.47
2018-10-19T23:56:07.830Z,8.80
2018-10-19T23:58:35.829Z,9.80
